Vallonia Springs, New York
Current Conditions -  °F | °C
As of 11:53 AM on Saturday 25 Oct 2014 (Local Time) from KBGM Reporting Station
Clear Clear  
Wind Chill: 56°   Ceiling: Unl
Heat Index: 56°   Visibility: 10mi
Dew Point: 43°   Wind: 8mph
Humidity: 62%   Direction: 240°WSW
Pressure: 29.77"   Gusts: NA
Location:  42.1592°N, 75.5309°W
Report Text: KBGM 251553Z 24007KT 210V270 10SM CLR 13/06 A2977 RMK AO2 SLP085 T01330061
Loading
Personal Weather Stations






























Interactive Weather Map
Tropical Storm Tracking
New forecast layout! Learn more

10-Day Weather Forecast

Advertisements
Track Severe Weather on mobile